sensor_id;sensor_type;location;lat;lon;timestamp;pressure;altitude;pressure_sealevel;temperature;humidity
29505;BME280;16452;54.174;12.092;2023-02-19T00:01:31;101244.66;;;6.34;100.00
29505;BME280;16452;54.174;12.092;2023-02-19T00:04:17;101247.72;;;6.48;100.00
29505;BME280;16452;54.174;12.092;2023-02-19T00:06:44;101251.97;;;6.50;100.00
29505;BME280;16452;54.174;12.092;2023-02-19T00:09:13;101250.72;;;6.33;100.00
29505;BME280;16452;54.174;12.092;2023-02-19T00:11:39;101250.88;;;6.27;100.00
29505;BME280;16452;54.174;12.092;2023-02-19T00:14:06;101243.94;;;6.29;100.00
29505;BME280;16452;54.174;12.092;2023-02-19T00:16:38;101249.16;;;6.27;100.00
29505;BME280;16452;54.174;12.092;2023-02-19T00:19:07;101250.59;;;6.37;100.00
29505;BME280;16452;54.174;12.092;2023-02-19T00:21:36;101248.09;;;6.34;100.00
29505;BME280;16452;54.174;12.092;2023-02-19T00:24:05;101242.88;;;6.36;100.00
29505;BME280;16452;54.174;12.092;2023-02-19T00:26:32;101233.72;;;6.55;100.00
29505;BME280;16452;54.174;12.092;2023-02-19T00:28:59;101235.44;;;6.24;100.00
29505;BME280;16452;54.174;12.092;2023-02-19T00:31:33;101235.56;;;6.19;100.00
29505;BME280;16452;54.174;12.092;2023-02-19T00:34:03;101229.25;;;6.29;100.00
29505;BME280;16452;54.174;12.092;2023-02-19T00:36:30;101216.97;;;6.37;100.00
29505;BME280;16452;54.174;12.092;2023-02-19T00:38:56;101228.53;;;6.55;100.00
29505;BME280;16452;54.174;12.092;2023-02-19T00:41:23;101219.78;;;6.59;100.00
29505;BME280;16452;54.174;12.092;2023-02-19T00:43:54;101223.06;;;6.66;100.00
29505;BME280;16452;54.174;12.092;2023-02-19T00:48:57;101231.13;;;6.55;100.00
29505;BME280;16452;54.174;12.092;2023-02-19T00:51:26;101219.09;;;6.52;100.00
29505;BME280;16452;54.174;12.092;2023-02-19T00:53:53;101223.72;;;6.43;100.00
29505;BME280;16452;54.174;12.092;2023-02-19T00:56:19;101227.97;;;6.45;100.00
29505;BME280;16452;54.174;12.092;2023-02-19T00:58:46;101220.97;;;6.47;100.00
29505;BME280;16452;54.174;12.092;2023-02-19T01:01:12;101227.56;;;6.28;100.00
29505;BME280;16452;54.174;12.092;2023-02-19T01:03:39;101227.78;;;6.21;100.00
29505;BME280;16452;54.174;12.092;2023-02-19T01:06:07;101225.28;;;6.48;100.00
29505;BME280;16452;54.174;12.092;2023-02-19T01:08:34;101230.88;;;6.33;100.00
29505;BME280;16452;54.174;12.092;2023-02-19T01:11:05;101226.59;;;6.32;100.00
29505;BME280;16452;54.174;12.092;2023-02-19T01:13:31;101227.47;;;6.31;100.00
29505;BME280;16452;54.174;12.092;2023-02-19T01:16:27;101227.44;;;6.64;100.00
29505;BME280;16452;54.174;12.092;2023-02-19T01:18:53;101217.50;;;6.48;100.00
29505;BME280;16452;54.174;12.092;2023-02-19T01:21:23;101220.03;;;6.51;100.00
29505;BME280;16452;54.174;12.092;2023-02-19T01:23:51;101222.38;;;6.59;100.00
29505;BME280;16452;54.174;12.092;2023-02-19T01:26:24;101220.28;;;6.42;100.00
29505;BME280;16452;54.174;12.092;2023-02-19T01:28:51;101223.53;;;6.49;100.00
29505;BME280;16452;54.174;12.092;2023-02-19T01:31:22;101227.00;;;6.48;100.00
29505;BME280;16452;54.174;12.092;2023-02-19T01:33:58;101234.00;;;6.46;100.00
29505;BME280;16452;54.174;12.092;2023-02-19T01:36:26;101228.72;;;6.49;100.00
29505;BME280;16452;54.174;12.092;2023-02-19T01:38:52;101230.91;;;6.63;100.00
29505;BME280;16452;54.174;12.092;2023-02-19T01:41:22;101226.84;;;6.54;100.00
29505;BME280;16452;54.174;12.092;2023-02-19T01:46:40;101235.63;;;6.48;100.00
29505;BME280;16452;54.174;12.092;2023-02-19T01:49:28;101239.22;;;6.43;100.00
29505;BME280;16452;54.174;12.092;2023-02-19T01:51:59;101234.75;;;6.49;100.00
29505;BME280;16452;54.174;12.092;2023-02-19T01:54:31;101231.41;;;6.46;100.00
29505;BME280;16452;54.174;12.092;2023-02-19T01:57:05;101230.38;;;6.51;100.00
29505;BME280;16452;54.174;12.092;2023-02-19T01:59:33;101237.44;;;6.46;100.00
29505;BME280;16452;54.174;12.092;2023-02-19T02:01:59;101238.22;;;6.48;100.00
29505;BME280;16452;54.174;12.092;2023-02-19T02:04:25;101231.66;;;6.66;100.00
29505;BME280;16452;54.174;12.092;2023-02-19T02:06:54;101229.53;;;6.51;100.00
29505;BME280;16452;54.174;12.092;2023-02-19T02:09:26;101228.75;;;6.47;100.00
29505;BME280;16452;54.174;12.092;2023-02-19T02:12:11;101241.69;;;6.47;100.00
29505;BME280;16452;54.174;12.092;2023-02-19T02:14:42;101243.50;;;6.45;100.00
29505;BME280;16452;54.174;12.092;2023-02-19T02:25:59;101233.81;;;6.52;100.00
29505;BME280;16452;54.174;12.092;2023-02-19T02:31:39;101222.72;;;6.47;100.00
29505;BME280;16452;54.174;12.092;2023-02-19T02:34:18;101231.34;;;6.47;100.00
29505;BME280;16452;54.174;12.092;2023-02-19T02:36:51;101233.00;;;6.50;100.00
29505;BME280;16452;54.174;12.092;2023-02-19T02:39:22;101226.13;;;6.49;100.00
29505;BME280;16452;54.174;12.092;2023-02-19T02:41:54;101228.81;;;6.46;100.00
29505;BME280;16452;54.174;12.092;2023-02-19T02:44:40;101223.66;;;6.44;100.00
29505;BME280;16452;54.174;12.092;2023-02-19T02:47:09;101225.38;;;6.45;100.00
29505;BME280;16452;54.174;12.092;2023-02-19T02:49:56;101233.22;;;6.42;100.00
29505;BME280;16452;54.174;12.092;2023-02-19T02:52:38;101230.59;;;6.44;100.00
29505;BME280;16452;54.174;12.092;2023-02-19T02:55:24;101222.66;;;6.50;100.00
29505;BME280;16452;54.174;12.092;2023-02-19T02:57:53;101219.97;;;6.53;100.00
29505;BME280;16452;54.174;12.092;2023-02-19T03:00:21;101221.81;;;6.49;100.00
29505;BME280;16452;54.174;12.092;2023-02-19T03:02:48;101216.78;;;6.43;100.00
29505;BME280;16452;54.174;12.092;2023-02-19T03:05:22;101229.03;;;6.37;100.00
29505;BME280;16452;54.174;12.092;2023-02-19T03:08:13;101224.88;;;6.31;100.00
29505;BME280;16452;54.174;12.092;2023-02-19T03:10:59;101222.22;;;6.34;100.00
29505;BME280;16452;54.174;12.092;2023-02-19T03:14:06;101217.59;;;6.45;100.00
29505;BME280;16452;54.174;12.092;2023-02-19T03:16:59;101209.69;;;6.51;100.00
29505;BME280;16452;54.174;12.092;2023-02-19T03:19:50;101219.97;;;6.22;100.00
29505;BME280;16452;54.174;12.092;2023-02-19T03:22:22;101213.44;;;6.40;100.00
29505;BME280;16452;54.174;12.092;2023-02-19T03:25:23;101207.28;;;6.44;100.00
29505;BME280;16452;54.174;12.092;2023-02-19T03:28:09;101210.06;;;6.38;100.00
29505;BME280;16452;54.174;12.092;2023-02-19T03:30:45;101201.22;;;6.45;100.00
29505;BME280;16452;54.174;12.092;2023-02-19T03:33:22;101204.97;;;6.35;100.00
29505;BME280;16452;54.174;12.092;2023-02-19T03:35:55;101205.88;;;6.34;100.00
29505;BME280;16452;54.174;12.092;2023-02-19T03:38:47;101207.75;;;6.27;100.00
29505;BME280;16452;54.174;12.092;2023-02-19T03:47:57;101206.75;;;6.33;100.00
29505;BME280;16452;54.174;12.092;2023-02-19T03:59:55;101216.50;;;6.54;100.00
29505;BME280;16452;54.174;12.092;2023-02-19T04:02:36;101234.25;;;6.35;100.00
29505;BME280;16452;54.174;12.092;2023-02-19T04:05:15;101233.31;;;6.39;100.00
29505;BME280;16452;54.174;12.092;2023-02-19T04:07:46;101232.50;;;6.37;100.00
29505;BME280;16452;54.174;12.092;2023-02-19T04:10:16;101239.09;;;6.47;100.00
29505;BME280;16452;54.174;12.092;2023-02-19T04:12:47;101234.63;;;6.52;100.00
29505;BME280;16452;54.174;12.092;2023-02-19T04:15:25;101240.34;;;6.34;100.00
29505;BME280;16452;54.174;12.092;2023-02-19T04:18:04;101249.84;;;6.34;100.00
29505;BME280;16452;54.174;12.092;2023-02-19T04:20:38;101254.88;;;6.38;100.00
29505;BME280;16452;54.174;12.092;2023-02-19T04:23:05;101248.91;;;6.04;100.00
29505;BME280;16452;54.174;12.092;2023-02-19T04:25:32;101254.41;;;6.24;100.00
29505;BME280;16452;54.174;12.092;2023-02-19T04:28:00;101248.47;;;6.21;100.00
29505;BME280;16452;54.174;12.092;2023-02-19T04:30:27;101260.81;;;6.11;100.00
29505;BME280;16452;54.174;12.092;2023-02-19T04:32:52;101263.28;;;6.14;100.00
29505;BME280;16452;54.174;12.092;2023-02-19T04:35:18;101265.03;;;6.13;100.00
29505;BME280;16452;54.174;12.092;2023-02-19T04:37:44;101266.72;;;6.14;100.00
29505;BME280;16452;54.174;12.092;2023-02-19T04:40:10;101270.28;;;6.10;100.00
29505;BME280;16452;54.174;12.092;2023-02-19T04:42:36;101277.22;;;6.08;100.00
29505;BME280;16452;54.174;12.092;2023-02-19T04:45:02;101267.91;;;6.01;100.00
29505;BME280;16452;54.174;12.092;2023-02-19T04:47:27;101264.31;;;6.08;100.00
29505;BME280;16452;54.174;12.092;2023-02-19T04:49:53;101273.34;;;6.25;100.00
29505;BME280;16452;54.174;12.092;2023-02-19T04:52:19;101279.41;;;6.24;100.00
29505;BME280;16452;54.174;12.092;2023-02-19T04:54:44;101281.13;;;6.25;100.00
29505;BME280;16452;54.174;12.092;2023-02-19T04:57:10;101293.63;;;6.07;100.00
29505;BME280;16452;54.174;12.092;2023-02-19T04:59:36;101281.38;;;6.15;100.00
29505;BME280;16452;54.174;12.092;2023-02-19T05:02:01;101290.16;;;6.08;100.00
29505;BME280;16452;54.174;12.092;2023-02-19T05:04:27;101295.44;;;6.05;100.00
29505;BME280;16452;54.174;12.092;2023-02-19T05:06:53;101307.50;;;6.05;100.00
29505;BME280;16452;54.174;12.092;2023-02-19T05:09:19;101303.41;;;5.95;100.00
29505;BME280;16452;54.174;12.092;2023-02-19T05:11:44;101311.00;;;6.02;100.00
29505;BME280;16452;54.174;12.092;2023-02-19T05:14:10;101308.44;;;6.01;100.00
29505;BME280;16452;54.174;12.092;2023-02-19T05:16:36;101307.69;;;5.97;100.00
29505;BME280;16452;54.174;12.092;2023-02-19T05:19:01;101312.34;;;5.82;100.00
29505;BME280;16452;54.174;12.092;2023-02-19T05:21:27;101305.50;;;5.79;100.00
29505;BME280;16452;54.174;12.092;2023-02-19T05:23:53;101322.53;;;5.89;100.00
29505;BME280;16452;54.174;12.092;2023-02-19T05:26:22;101322.59;;;5.85;100.00
29505;BME280;16452;54.174;12.092;2023-02-19T05:28:51;101314.34;;;5.70;100.00
29505;BME280;16452;54.174;12.092;2023-02-19T05:31:18;101322.97;;;5.69;100.00
29505;BME280;16452;54.174;12.092;2023-02-19T05:33:44;101326.16;;;5.81;100.00
29505;BME280;16452;54.174;12.092;2023-02-19T05:36:14;101321.75;;;5.84;100.00
29505;BME280;16452;54.174;12.092;2023-02-19T05:38:40;101322.59;;;5.85;100.00
29505;BME280;16452;54.174;12.092;2023-02-19T05:41:13;101325.19;;;5.85;100.00
29505;BME280;16452;54.174;12.092;2023-02-19T05:43:40;101332.44;;;5.70;100.00
29505;BME280;16452;54.174;12.092;2023-02-19T05:46:07;101325.41;;;5.75;100.00
29505;BME280;16452;54.174;12.092;2023-02-19T05:48:33;101334.06;;;5.74;100.00
29505;BME280;16452;54.174;12.092;2023-02-19T05:51:09;101344.09;;;5.87;100.00
29505;BME280;16452;54.174;12.092;2023-02-19T05:53:35;101336.00;;;5.65;100.00
29505;BME280;16452;54.174;12.092;2023-02-19T05:56:01;101341.72;;;5.77;100.00
29505;BME280;16452;54.174;12.092;2023-02-19T05:58:27;101351.50;;;5.65;100.00
29505;BME280;16452;54.174;12.092;2023-02-19T06:00:53;101354.44;;;5.48;100.00
29505;BME280;16452;54.174;12.092;2023-02-19T06:03:20;101351.59;;;5.60;100.00
29505;BME280;16452;54.174;12.092;2023-02-19T06:05:46;101349.44;;;5.79;100.00
29505;BME280;16452;54.174;12.092;2023-02-19T06:08:14;101348.72;;;5.72;100.00
29505;BME280;16452;54.174;12.092;2023-02-19T06:10:40;101354.84;;;5.70;100.00
29505;BME280;16452;54.174;12.092;2023-02-19T06:13:08;101351.16;;;5.80;100.00
29505;BME280;16452;54.174;12.092;2023-02-19T06:15:35;101364.19;;;5.75;100.00
29505;BME280;16452;54.174;12.092;2023-02-19T06:18:05;101362.47;;;5.76;100.00
29505;BME280;16452;54.174;12.092;2023-02-19T06:20:31;101359.81;;;5.77;100.00
29505;BME280;16452;54.174;12.092;2023-02-19T06:22:57;101369.50;;;5.69;100.00
29505;BME280;16452;54.174;12.092;2023-02-19T06:25:23;101366.84;;;5.71;100.00
29505;BME280;16452;54.174;12.092;2023-02-19T06:27:48;101367.09;;;5.60;100.00
29505;BME280;16452;54.174;12.092;2023-02-19T06:30:14;101378.81;;;5.76;100.00
29505;BME280;16452;54.174;12.092;2023-02-19T06:32:40;101378.13;;;5.68;100.00
29505;BME280;16452;54.174;12.092;2023-02-19T06:35:06;101370.44;;;5.65;100.00
29505;BME280;16452;54.174;12.092;2023-02-19T06:37:31;101382.44;;;5.68;100.00
29505;BME280;16452;54.174;12.092;2023-02-19T06:39:57;101384.19;;;5.67;100.00
29505;BME280;16452;54.174;12.092;2023-02-19T06:42:23;101390.34;;;5.60;100.00
29505;BME280;16452;54.174;12.092;2023-02-19T06:44:48;101394.31;;;5.76;100.00
29505;BME280;16452;54.174;12.092;2023-02-19T06:47:14;101395.44;;;5.65;100.00
29505;BME280;16452;54.174;12.092;2023-02-19T06:49:40;101401.50;;;5.64;100.00
29505;BME280;16452;54.174;12.092;2023-02-19T06:52:06;101407.38;;;5.70;100.00
29505;BME280;16452;54.174;12.092;2023-02-19T06:54:31;101413.44;;;5.69;100.00
29505;BME280;16452;54.174;12.092;2023-02-19T06:56:58;101412.00;;;5.56;100.00
29505;BME280;16452;54.174;12.092;2023-02-19T06:59:25;101413.75;;;5.54;100.00
29505;BME280;16452;54.174;12.092;2023-02-19T07:01:51;101420.69;;;5.52;100.00
29505;BME280;16452;54.174;12.092;2023-02-19T07:04:17;101434.38;;;5.57;100.00
29505;BME280;16452;54.174;12.092;2023-02-19T07:06:42;101432.97;;;5.41;100.00
29505;BME280;16452;54.174;12.092;2023-02-19T07:09:09;101432.56;;;5.59;100.00
29505;BME280;16452;54.174;12.092;2023-02-19T07:11:37;101430.59;;;5.72;100.00
29505;BME280;16452;54.174;12.092;2023-02-19T07:14:06;101429.75;;;5.71;100.00
29505;BME280;16452;54.174;12.092;2023-02-19T07:16:34;101447.03;;;5.69;100.00
29505;BME280;16452;54.174;12.092;2023-02-19T07:19:00;101441.19;;;5.60;100.00
29505;BME280;16452;54.174;12.092;2023-02-19T07:21:27;101450.47;;;5.70;100.00
29505;BME280;16452;54.174;12.092;2023-02-19T07:23:53;101455.53;;;5.74;100.00
29505;BME280;16452;54.174;12.092;2023-02-19T07:26:20;101465.66;;;5.84;100.00
29505;BME280;16452;54.174;12.092;2023-02-19T07:28:48;101462.09;;;5.91;100.00
29505;BME280;16452;54.174;12.092;2023-02-19T07:31:16;101463.28;;;5.74;100.00
29505;BME280;16452;54.174;12.092;2023-02-19T07:33:44;101468.25;;;5.84;100.00
29505;BME280;16452;54.174;12.092;2023-02-19T07:36:10;101463.78;;;5.93;100.00
29505;BME280;16452;54.174;12.092;2023-02-19T07:38:36;101474.63;;;6.09;100.00
29505;BME280;16452;54.174;12.092;2023-02-19T07:41:03;101484.97;;;6.09;100.00
29505;BME280;16452;54.174;12.092;2023-02-19T07:43:33;101494.25;;;6.17;100.00
29505;BME280;16452;54.174;12.092;2023-02-19T07:46:03;101494.31;;;6.16;100.00
29505;BME280;16452;54.174;12.092;2023-02-19T07:48:29;101509.22;;;6.05;100.00
29505;BME280;16452;54.174;12.092;2023-02-19T07:50:58;101502.78;;;6.23;100.00
29505;BME280;16452;54.174;12.092;2023-02-19T07:53:25;101506.06;;;6.29;100.00
29505;BME280;16452;54.174;12.092;2023-02-19T07:55:51;101511.88;;;6.40;100.00
29505;BME280;16452;54.174;12.092;2023-02-19T07:58:18;101516.28;;;6.35;100.00
29505;BME280;16452;54.174;12.092;2023-02-19T08:00:44;101528.47;;;6.30;100.00
29505;BME280;16452;54.174;12.092;2023-02-19T08:03:10;101528.69;;;6.21;100.00
29505;BME280;16452;54.174;12.092;2023-02-19T08:05:41;101526.38;;;6.09;100.00
29505;BME280;16452;54.174;12.092;2023-02-19T08:08:09;101529.59;;;6.18;100.00
29505;BME280;16452;54.174;12.092;2023-02-19T08:10:36;101544.44;;;6.10;100.00
29505;BME280;16452;54.174;12.092;2023-02-19T08:13:20;101545.91;;;6.22;100.00
29505;BME280;16452;54.174;12.092;2023-02-19T08:18:23;101545.84;;;6.24;100.00
29505;BME280;16452;54.174;12.092;2023-02-19T08:20:50;101555.06;;;6.37;100.00
29505;BME280;16452;54.174;12.092;2023-02-19T08:23:17;101563.00;;;6.29;100.00
29505;BME280;16452;54.174;12.092;2023-02-19T08:25:45;101566.22;;;6.40;100.00
29505;BME280;16452;54.174;12.092;2023-02-19T08:28:11;101569.41;;;6.51;100.00
29505;BME280;16452;54.174;12.092;2023-02-19T08:30:39;101581.44;;;6.52;99.60
29505;BME280;16452;54.174;12.092;2023-02-19T08:33:07;101583.50;;;6.38;99.18
29505;BME280;16452;54.174;12.092;2023-02-19T08:35:35;101596.09;;;6.53;98.67
29505;BME280;16452;54.174;12.092;2023-02-19T08:38:02;101597.53;;;6.28;99.70
29505;BME280;16452;54.174;12.092;2023-02-19T08:40:29;101608.75;;;6.27;99.55
29505;BME280;16452;54.174;12.092;2023-02-19T08:42:54;101610.66;;;6.17;100.00
29505;BME280;16452;54.174;12.092;2023-02-19T08:45:20;101603.22;;;6.44;99.96
29505;BME280;16452;54.174;12.092;2023-02-19T08:47:48;101606.81;;;6.37;100.00
29505;BME280;16452;54.174;12.092;2023-02-19T08:50:14;101610.50;;;6.65;100.00
29505;BME280;16452;54.174;12.092;2023-02-19T08:52:40;101614.28;;;6.50;97.99
29505;BME280;16452;54.174;12.092;2023-02-19T08:55:06;101616.47;;;6.69;97.33
29505;BME280;16452;54.174;12.092;2023-02-19T08:57:35;101611.31;;;6.69;96.13
29505;BME280;16452;54.174;12.092;2023-02-19T09:00:03;101614.06;;;6.98;96.44
29505;BME280;16452;54.174;12.092;2023-02-19T09:02:29;101610.78;;;6.91;97.53
29505;BME280;16452;54.174;12.092;2023-02-19T09:04:55;101617.38;;;7.05;95.91
29505;BME280;16452;54.174;12.092;2023-02-19T09:07:21;101616.47;;;7.06;94.72
29505;BME280;16452;54.174;12.092;2023-02-19T09:09:47;101611.38;;;7.03;94.02
29505;BME280;16452;54.174;12.092;2023-02-19T09:12:13;101627.78;;;7.01;94.34
29505;BME280;16452;54.174;12.092;2023-02-19T09:14:39;101627.28;;;7.23;94.70
29505;BME280;16452;54.174;12.092;2023-02-19T09:17:07;101623.91;;;7.19;93.93
29505;BME280;16452;54.174;12.092;2023-02-19T09:19:33;101629.09;;;7.19;94.48
29505;BME280;16452;54.174;12.092;2023-02-19T09:21:58;101642.88;;;7.21;94.01
29505;BME280;16452;54.174;12.092;2023-02-19T09:24:24;101632.84;;;7.41;93.17
29505;BME280;16452;54.174;12.092;2023-02-19T09:26:52;101639.94;;;7.35;93.91
29505;BME280;16452;54.174;12.092;2023-02-19T09:29:18;101645.50;;;7.20;95.19
29505;BME280;16452;54.174;12.092;2023-02-19T09:31:44;101648.94;;;7.20;94.85
29505;BME280;16452;54.174;12.092;2023-02-19T09:34:10;101648.78;;;6.89;93.70
29505;BME280;16452;54.174;12.092;2023-02-19T09:36:37;101663.22;;;7.01;94.30
29505;BME280;16452;54.174;12.092;2023-02-19T09:39:04;101653.94;;;6.91;93.69
29505;BME280;16452;54.174;12.092;2023-02-19T09:41:35;101663.06;;;7.07;92.78
29505;BME280;16452;54.174;12.092;2023-02-19T09:44:05;101661.34;;;7.06;92.52
29505;BME280;16452;54.174;12.092;2023-02-19T09:49:14;101676.41;;;6.90;92.36
29505;BME280;16452;54.174;12.092;2023-02-19T09:51:46;101685.06;;;6.89;93.68
29505;BME280;16452;54.174;12.092;2023-02-19T09:54:24;101687.31;;;7.05;92.63
29505;BME280;16452;54.174;12.092;2023-02-19T09:56:53;101697.81;;;6.98;92.49
29505;BME280;16452;54.174;12.092;2023-02-19T09:59:29;101692.34;;;7.11;91.54
29505;BME280;16452;54.174;12.092;2023-02-19T10:02:23;101695.47;;;7.25;91.47
29505;BME280;16452;54.174;12.092;2023-02-19T10:04:50;101706.81;;;7.21;91.84
29505;BME280;16452;54.174;12.092;2023-02-19T10:07:28;101717.91;;;6.87;90.62
29505;BME280;16452;54.174;12.092;2023-02-19T10:10:54;101728.13;;;7.33;91.39
29505;BME280;16452;54.174;12.092;2023-02-19T10:13:50;101732.13;;;7.08;91.85
29505;BME280;16452;54.174;12.092;2023-02-19T10:16:25;101727.94;;;7.03;90.12
29505;BME280;16452;54.174;12.092;2023-02-19T10:18:51;101722.88;;;6.96;89.46
29505;BME280;16452;54.174;12.092;2023-02-19T10:21:23;101724.94;;;7.21;88.64
29505;BME280;16452;54.174;12.092;2023-02-19T10:23:54;101727.41;;;7.27;87.72
29505;BME280;16452;54.174;12.092;2023-02-19T10:26:22;101722.88;;;6.96;87.59
29505;BME280;16452;54.174;12.092;2023-02-19T10:28:48;101745.28;;;7.37;87.40
29505;BME280;16452;54.174;12.092;2023-02-19T10:31:23;101755.19;;;7.20;87.93
29505;BME280;16452;54.174;12.092;2023-02-19T10:33:55;101768.13;;;7.20;87.55
29505;BME280;16452;54.174;12.092;2023-02-19T10:36:29;101766.78;;;7.04;88.46
29505;BME280;16452;54.174;12.092;2023-02-19T10:38:56;101772.38;;;7.23;89.29
29505;BME280;16452;54.174;12.092;2023-02-19T10:41:24;101789.00;;;7.14;89.32
29505;BME280;16452;54.174;12.092;2023-02-19T10:44:04;101782.22;;;7.07;88.88
29505;BME280;16452;54.174;12.092;2023-02-19T10:46:35;101779.50;;;7.13;88.30
29505;BME280;16452;54.174;12.092;2023-02-19T10:49:05;101783.22;;;7.01;89.43
29505;BME280;16452;54.174;12.092;2023-02-19T10:51:39;101785.91;;;6.97;89.46
29505;BME280;16452;54.174;12.092;2023-02-19T10:56:44;101798.44;;;7.17;92.29
29505;BME280;16452;54.174;12.092;2023-02-19T10:59:27;101796.56;;;7.23;88.55
29505;BME280;16452;54.174;12.092;2023-02-19T11:01:59;101796.44;;;7.29;89.44
29505;BME280;16452;54.174;12.092;2023-02-19T11:04:31;101818.47;;;7.09;88.67
29505;BME280;16452;54.174;12.092;2023-02-19T11:07:11;101818.22;;;7.21;90.10
29505;BME280;16452;54.174;12.092;2023-02-19T11:09:44;101821.88;;;7.11;90.45
29505;BME280;16452;54.174;12.092;2023-02-19T11:12:27;101813.28;;;7.10;89.45
29505;BME280;16452;54.174;12.092;2023-02-19T11:14:54;101817.88;;;6.96;89.87
29505;BME280;16452;54.174;12.092;2023-02-19T11:17:27;101817.59;;;7.10;90.06
29505;BME280;16452;54.174;12.092;2023-02-19T11:20:06;101818.25;;;7.19;89.23
29505;BME280;16452;54.174;12.092;2023-02-19T11:22:38;101824.28;;;7.21;89.27
29505;BME280;16452;54.174;12.092;2023-02-19T11:27:35;101844.56;;;6.99;89.56
29505;BME280;16452;54.174;12.092;2023-02-19T11:33:03;101847.63;;;7.18;89.54
29505;BME280;16452;54.174;12.092;2023-02-19T11:35:37;101846.84;;;7.16;89.44
29505;BME280;16452;54.174;12.092;2023-02-19T11:38:07;101858.31;;;7.03;90.22
29505;BME280;16452;54.174;12.092;2023-02-19T11:44:04;101851.22;;;7.11;89.58
29505;BME280;16452;54.174;12.092;2023-02-19T11:46:52;101849.34;;;7.19;91.10
29505;BME280;16452;54.174;12.092;2023-02-19T11:59:02;101847.63;;;7.18;89.89
29505;BME280;16452;54.174;12.092;2023-02-19T12:05:08;101863.38;;;7.09;89.50
29505;BME280;16452;54.174;12.092;2023-02-19T12:08:56;101873.50;;;7.21;89.69
29505;BME280;16452;54.174;12.092;2023-02-19T12:11:27;101870.47;;;6.99;91.17
29505;BME280;16452;54.174;12.092;2023-02-19T12:17:03;101874.25;;;7.26;89.81
29505;BME280;16452;54.174;12.092;2023-02-19T12:22:31;101882.03;;;7.26;90.32
29505;BME280;16452;54.174;12.092;2023-02-19T12:28:17;101888.31;;;7.15;89.60
29505;BME280;16452;54.174;12.092;2023-02-19T12:31:25;101882.81;;;7.30;90.20
29505;BME280;16452;54.174;12.092;2023-02-19T12:37:12;101896.47;;;7.38;89.36
29505;BME280;16452;54.174;12.092;2023-02-19T12:40:21;101891.94;;;7.48;88.54
29505;BME280;16452;54.174;12.092;2023-02-19T12:43:18;101908.63;;;7.34;88.81
29505;BME280;16452;54.174;12.092;2023-02-19T12:48:40;101909.72;;;7.64;87.93
29505;BME280;16452;54.174;12.092;2023-02-19T12:54:23;101908.22;;;7.54;86.94
29505;BME280;16452;54.174;12.092;2023-02-19T12:57:13;101909.97;;;7.54;87.39
29505;BME280;16452;54.174;12.092;2023-02-19T13:00:00;101909.34;;;7.41;88.29
29505;BME280;16452;54.174;12.092;2023-02-19T13:08:04;101924.16;;;7.36;87.62
29505;BME280;16452;54.174;12.092;2023-02-19T13:10:40;101927.34;;;7.50;86.48
29505;BME280;16452;54.174;12.092;2023-02-19T13:13:44;101921.69;;;7.71;85.54
29505;BME280;16452;54.174;12.092;2023-02-19T13:16:14;101932.34;;;7.58;84.92
29505;BME280;16452;54.174;12.092;2023-02-19T13:18:52;101929.69;;;7.62;83.65
29505;BME280;16452;54.174;12.092;2023-02-19T13:21:20;101923.88;;;7.50;82.66
29505;BME280;16452;54.174;12.092;2023-02-19T13:24:12;101917.56;;;7.63;81.44
29505;BME280;16452;54.174;12.092;2023-02-19T13:30:06;101914.72;;;7.73;81.25
29505;BME280;16452;54.174;12.092;2023-02-19T13:33:12;101909.31;;;7.82;78.91
29505;BME280;16452;54.174;12.092;2023-02-19T13:36:11;101898.03;;;7.85;79.45
29505;BME280;16452;54.174;12.092;2023-02-19T13:38:45;101890.06;;;7.93;79.43
29505;BME280;16452;54.174;12.092;2023-02-19T13:41:48;101893.38;;;7.99;80.63
29505;BME280;16452;54.174;12.092;2023-02-19T13:44:25;101890.53;;;7.73;84.00
29505;BME280;16452;54.174;12.092;2023-02-19T13:46:51;101882.06;;;8.03;84.36
29505;BME280;16452;54.174;12.092;2023-02-19T13:49:40;101890.91;;;7.95;87.90
29505;BME280;16452;54.174;12.092;2023-02-19T14:01:08;101885.00;;;7.88;92.32
29505;BME280;16452;54.174;12.092;2023-02-19T14:03:47;101898.78;;;7.90;90.48
29505;BME280;16452;54.174;12.092;2023-02-19T14:06:15;101895.09;;;8.00;89.07
29505;BME280;16452;54.174;12.092;2023-02-19T14:08:57;101896.31;;;7.86;89.41
29505;BME280;16452;54.174;12.092;2023-02-19T14:28:27;101898.28;;;8.11;83.55
29505;BME280;16452;54.174;12.092;2023-02-19T14:33:35;101897.22;;;7.83;84.88
29505;BME280;16452;54.174;12.092;2023-02-19T14:38:52;101900.72;;;7.80;85.02
29505;BME280;16452;54.174;12.092;2023-02-19T14:41:20;101915.03;;;7.60;84.48
29505;BME280;16452;54.174;12.092;2023-02-19T14:43:52;101923.56;;;7.63;85.86
29505;BME280;16452;54.174;12.092;2023-02-19T14:46:23;101923.78;;;7.54;85.79
29505;BME280;16452;54.174;12.092;2023-02-19T14:48:50;101935.13;;;7.50;87.48
29505;BME280;16452;54.174;12.092;2023-02-19T14:51:37;101916.47;;;7.73;87.53
29505;BME280;16452;54.174;12.092;2023-02-19T14:54:51;101914.47;;;7.86;87.45
29505;BME280;16452;54.174;12.092;2023-02-19T14:57:29;101913.16;;;7.66;87.67
29505;BME280;16452;54.174;12.092;2023-02-19T14:59:59;101910.78;;;7.56;88.33
29505;BME280;16452;54.174;12.092;2023-02-19T15:02:30;101914.44;;;7.46;88.86
29505;BME280;16452;54.174;12.092;2023-02-19T15:04:57;101911.56;;;7.59;87.70
29505;BME280;16452;54.174;12.092;2023-02-19T15:07:31;101912.44;;;7.60;87.44
29505;BME280;16452;54.174;12.092;2023-02-19T15:10:00;101903.31;;;7.40;87.97